Quantcast

8 Hour Whore's FFR replays

1 - 50 | 51 - 100 | 101 - 132
Song Results (Perf-Good-Avg-Miss-Boo) Max Combo Score Date
Nanairopanda 1,133 - 48 - 0 - 0 - 0 1,181 1,817,350 3/5/14
Freak 1,129 - 9 - 0 - 0 - 1 1,138 1,761,405 12/6/12
Case Closed 1,029 - 0 - 0 - 0 - 0 1,029 1,594,950 12/6/12
Internet Heroes 1,626 - 3 - 0 - 0 - 0 1,629 2,524,125 12/6/12
Never Enough (xKrmix) 675 - 8 - 0 - 0 - 1 683 1,056,430 12/6/12
Within Life 1,220 - 18 - 0 - 0 - 2 1,238 1,913,910 12/6/12
Within Life 1,212 - 25 - 0 - 1 - 0 953 1,626,165 12/6/12
CORETOON 1,043 - 17 - 0 - 0 - 2 1,060 1,638,285 12/5/12
Magnum 1,450 - 60 - 1 - 9 - 15 586 1,396,965 12/5/12
Colibri 1,304 - 50 - 4 - 0 - 7 1,358 2,089,030 12/5/12
VS Boss Battle 787 - 39 - 3 - 1 - 8 828 1,271,270 11/28/12
VS Boss Battle 540 - 9 - 0 - 1 - 2 547 846,125 11/28/12
Colibri 1,315 - 38 - 4 - 1 - 3 1,348 2,081,550 11/28/12
Colibri 1,320 - 35 - 1 - 2 - 4 1,302 2,036,980 11/28/12
Nix-Tek 1,467 - 44 - 3 - 1 - 4 854 1,672,725 11/27/12
Nix-Tek 1,457 - 50 - 2 - 6 - 12 821 1,634,110 11/27/12
Colibri 1,301 - 52 - 2 - 3 - 5 748 1,476,930 11/27/12
Op.10 No.9 992 - 29 - 2 - 1 - 6 964 1,517,255 11/27/12
Epilogue 917 - 32 - 0 - 3 - 3 874 1,386,160 11/27/12
Nix-Tek 1,436 - 67 - 6 - 6 - 16 629 1,435,375 11/27/12
The Replicator 955 - 49 - 3 - 2 - 11 630 1,168,050 11/27/12
Rarity Attempts 400 Dresses (LOOMING MIX) 1,391 - 149 - 6 - 20 - 24 559 1,358,675 11/27/12
Op.10 No.9 974 - 44 - 0 - 6 - 2 391 936,900 11/27/12
The Replicator 935 - 67 - 0 - 7 - 7 414 944,365 11/27/12
Op.10 No.9 967 - 54 - 0 - 3 - 6 951 1,496,650 11/26/12
Op.10 No.9 934 - 81 - 4 - 5 - 8 474 1,008,485 11/26/12
Colibri 1,295 - 53 - 5 - 5 - 11 608 1,333,330 11/26/12
Colibri 1,263 - 85 - 4 - 6 - 10 673 1,389,185 11/26/12
CS Custom Gun Sounds 674 - 2 - 0 - 0 - 0 676 1,047,250 11/26/12
On the Origin of Species (Evolution) 655 - 1 - 0 - 0 - 0 656 1,016,525 11/26/12
My favorite shoes 745 - 5 - 1 - 0 - 1 751 1,162,160 11/26/12
Hello (Luke Da Duke Remix) 1,311 - 28 - 0 - 1 - 2 1,088 1,816,400 11/26/12
Addict (Dr. Ozi Monsta r3mix) 986 - 17 - 0 - 0 - 0 1,003 1,549,975 11/26/12
Press Start 1,384 - 128 - 9 - 20 - 24 361 1,151,215 11/24/12
Yellow Leaves 1,439 - 41 - 1 - 0 - 1 1,481 2,283,760 11/24/12
Windy Valley (Genesis'd) 750 - 2 - 0 - 0 - 0 752 1,165,050 11/24/12
WHO GIVES A F*** 611 - 3 - 1 - 0 - 3 615 951,870 11/24/12
Baby Still Too Fat 1,048 - 13 - 0 - 0 - 0 1,061 1,640,975 11/24/12
Find a Pet (Candy Mix) 986 - 2 - 0 - 0 - 0 988 1,530,850 11/23/12
Insomnia (Acid Paradox remix) 712 - 1 - 0 - 0 - 0 713 1,104,875 11/23/12
Politically Correct Holiday Song 560 - 0 - 0 - 0 - 0 560 868,000 11/23/12
Leave it 376 - 0 - 0 - 0 - 0 376 582,800 7/28/12
Lunar Landing 253 - 0 - 0 - 0 - 0 253 392,150 7/28/12
Electric Obsession 599 - 1 - 0 - 0 - 0 600 929,725 7/28/12
EuroMorroc (Clean Edit) 996 - 42 - 1 - 4 - 1 415 973,145 7/8/12
Caprice for Violin in B minor Theme and Variations 1,482 - 9 - 0 - 0 - 1 1,491 2,308,555 5/11/12
Nomina Nuda Tenemus 906 - 68 - 8 - 5 - 8 448 963,730 5/8/12
Norfolk Gals 19 - 22 - 26 - 36 - 7 16 22,630 5/7/12
Jeanie and Caroline 1,211 - 4 - 0 - 0 - 1 1,215 1,882,130 5/3/12
Makiba 1,544 - 3 - 0 - 0 - 0 1,547 2,397,025 5/3/12
1 - 50 | 51 - 100 | 101 - 132



8 Hour Whore's R^3 replays

1 - 42
Song Results (Perf-Good-Avg-Miss-Boo) Max Combo Score Date
BB Evolution 2,628 - 1 - 0 - 2 - 0 1,483 2,928,055 5/20/14
Final Fantasy Last Battle Festival 3,645 - 3 - 0 - 0 - 1 3,648 5,653,555 5/19/14
Final Fantasy Last Battle Festival 3,641 - 6 - 0 - 1 - 0 2,215 4,218,890 5/19/14
The First Epidemic 1,920 - 4 - 0 - 1 - 0 1,240 2,296,790 5/19/14
The First Epidemic 1,920 - 4 - 0 - 1 - 1 1,419 2,475,770 5/19/14
Felix^3 1,050 - 1 - 0 - 0 - 0 1,051 1,628,775 5/19/14
The First Epidemic 1,919 - 6 - 0 - 0 - 0 1,925 2,982,100 5/19/14
The First Epidemic 1,915 - 8 - 0 - 2 - 2 939 1,993,790 5/19/14
Ah Shwe Bah 1,467 - 19 - 1 - 4 - 2 893 1,703,850 5/17/14
The First Epidemic 1,906 - 15 - 1 - 3 - 1 708 1,759,530 5/16/14
Sparkle Downer 1,348 - 9 - 0 - 3 - 3 708 1,450,885 5/16/14
Zombie Killing, Blood Spilling 1,614 - 0 - 0 - 0 - 0 1,614 2,501,700 5/16/14
ETERNAL DRAIN [Heavy] 1,305 - 0 - 0 - 0 - 0 1,305 2,022,750 5/16/14
.357 Magnum 1,473 - 1 - 0 - 2 - 0 1,315 2,124,805 5/16/14
Distortion Power 1,804 - 10 - 0 - 1 - 0 1,352 2,346,640 5/16/14
When Penguins Fly 802 - 5 - 1 - 0 - 2 808 1,250,490 5/16/14
The Adventures Of Lolo 514 - 6 - 0 - 4 - 1 369 652,090 5/15/14
The Adventures Of Lolo 506 - 12 - 0 - 6 - 0 154 433,740 5/15/14
Reluctantly Accepting Temporary Overexhaustion 1,583 - 16 - 1 - 0 - 0 1,600 2,475,105 5/15/14
S.E.B. in B.E.D. 1,218 - 9 - 0 - 21 - 10 1,211 1,876,665 5/14/14
UMAD? 706 - 0 - 0 - 0 - 1 706 1,094,280 5/14/14
Banned Forever 2,023 - 0 - 0 - 0 - 0 2,023 3,135,650 5/13/14
Pure Ruby 1,220 - 0 - 0 - 0 - 0 1,220 1,891,000 5/13/14
BF2014 1,309 - 1 - 0 - 0 - 0 1,310 2,030,225 5/10/14
Railgun 926 - 0 - 0 - 0 - 1 926 1,435,280 5/10/14
Call Me Maybe (Grabbitz Remix) 889 - 0 - 0 - 0 - 0 889 1,377,950 5/10/14
Tachyon 1,076 - 0 - 0 - 0 - 0 1,076 1,667,800 5/10/14
Revolutionary Etude v2 1,494 - 1 - 0 - 0 - 0 1,495 2,316,975 5/10/14
Ding Dong Song [Standard] 784 - 0 - 0 - 0 - 0 784 1,215,200 5/10/14
Dreadnought [Standard] 673 - 0 - 0 - 0 - 0 673 1,043,150 5/8/14
Dreadnought [Standard] 673 - 0 - 0 - 0 - 0 673 1,043,150 5/8/14
Dreadnought [Standard] 673 - 0 - 0 - 0 - 0 673 1,043,150 5/8/14
Dreadnought [Standard] 673 - 0 - 0 - 0 - 0 673 1,043,150 5/8/14
Dreadnought [Standard] 673 - 0 - 0 - 0 - 0 673 1,043,150 5/8/14
Dreadnought [Standard] 673 - 0 - 0 - 0 - 0 673 1,043,150 5/8/14
Dreadnought [Standard] 673 - 0 - 0 - 0 - 0 673 1,043,150 5/8/14
Dreadnought [Standard] 673 - 0 - 0 - 0 - 0 673 1,043,150 5/8/14
Dreadnought [Standard] 673 - 0 - 0 - 0 - 0 673 1,043,150 5/8/14
The Five 1,000 - 5 - 5 - 5 - 5 530 1,080,000 3/14/14
Monstrous Turtles! 1,380 - 3 - 0 - 1 - 0 957 1,716,515 2/25/14
center piercing 1,125 - 1 - 0 - 0 - 0 1,126 1,745,025 2/25/14
Nintendon't 1,153 - 0 - 0 - 0 - 0 1,153 1,787,150 2/25/14
1 - 42